createdAt,value
2023-04-24T00:01:37.940Z,17.50
2023-04-24T00:04:05.183Z,17.30
2023-04-24T00:06:34.753Z,17.30
2023-04-24T00:09:02.298Z,17.20
2023-04-24T00:11:29.505Z,17.40
2023-04-24T00:13:57.579Z,17.40
2023-04-24T00:16:24.719Z,17.50
2023-04-24T00:18:53.738Z,17.50
2023-04-24T00:21:21.465Z,17.40
2023-04-24T00:23:48.897Z,17.40
2023-04-24T00:26:15.973Z,17.30
2023-04-24T00:28:42.959Z,17.20
2023-04-24T00:31:09.954Z,17.10
2023-04-24T00:33:37.273Z,17.20
2023-04-24T00:36:04.400Z,17.20
2023-04-24T00:38:31.362Z,17.20
2023-04-24T00:40:58.284Z,17.10
2023-04-24T00:43:25.716Z,17.20
2023-04-24T00:45:52.820Z,17.10
2023-04-24T00:48:21.371Z,17.20
2023-04-24T00:50:48.383Z,17.10
2023-04-24T00:53:15.735Z,17.20
2023-04-24T00:55:42.785Z,17.10
2023-04-24T00:58:10.108Z,17.20
2023-04-24T01:00:37.163Z,17.20
2023-04-24T01:03:06.188Z,17.10
2023-04-24T01:05:35.032Z,17.10
2023-04-24T01:08:03.507Z,17.10
2023-04-24T01:10:32.813Z,17.20
2023-04-24T01:13:00.655Z,17.20
2023-04-24T01:15:27.782Z,17.20
2023-04-24T01:17:54.824Z,17.10
2023-04-24T01:20:22.132Z,17.10
2023-04-24T01:22:49.318Z,17.10
2023-04-24T01:25:16.515Z,17.20
2023-04-24T01:27:43.625Z,17.10
2023-04-24T01:30:13.313Z,17.10
2023-04-24T01:32:41.353Z,17.10
2023-04-24T01:35:09.301Z,17.10
2023-04-24T01:37:38.266Z,17.10
2023-04-24T01:40:07.797Z,17.10
2023-04-24T01:42:36.058Z,17.10
2023-04-24T01:45:05.117Z,17.10
2023-04-24T01:47:33.091Z,17.10
2023-04-24T01:50:00.246Z,17.10
2023-04-24T01:52:28.170Z,17.00
2023-04-24T01:54:56.780Z,16.90
2023-04-24T01:57:24.387Z,16.90
2023-04-24T01:59:52.117Z,16.90
2023-04-24T02:02:19.614Z,16.90
2023-04-24T02:04:46.664Z,16.70
2023-04-24T02:07:13.577Z,16.70
2023-04-24T02:09:40.643Z,16.70
2023-04-24T02:12:07.721Z,16.80
2023-04-24T02:14:34.824Z,16.90
2023-04-24T02:17:01.772Z,16.80
2023-04-24T02:19:29.413Z,16.80
2023-04-24T02:21:56.336Z,16.90
2023-04-24T02:24:23.335Z,17.00
2023-04-24T02:26:50.337Z,17.00
2023-04-24T02:29:17.279Z,17.10
2023-04-24T02:31:44.389Z,17.20
2023-04-24T02:34:12.265Z,17.10
2023-04-24T02:36:39.590Z,17.10
2023-04-24T02:39:06.645Z,17.10
2023-04-24T02:41:33.799Z,17.10
2023-04-24T02:44:00.864Z,17.10
2023-04-24T02:46:27.902Z,17.00
2023-04-24T02:48:54.964Z,17.10
2023-04-24T02:51:22.067Z,17.10
2023-04-24T02:53:49.235Z,17.00
2023-04-24T02:56:16.256Z,17.10
2023-04-24T02:58:43.491Z,16.90
2023-04-24T03:01:11.215Z,16.70
2023-04-24T03:03:40.096Z,16.70
2023-04-24T03:06:09.012Z,16.70
2023-04-24T03:08:36.565Z,16.80
2023-04-24T03:11:04.280Z,16.90
2023-04-24T03:13:32.329Z,16.70
2023-04-24T03:15:59.311Z,16.80
2023-04-24T03:18:28.380Z,16.90
2023-04-24T03:20:55.623Z,16.90
2023-04-24T03:23:22.913Z,16.90
2023-04-24T03:25:49.889Z,17.00
2023-04-24T03:28:20.569Z,17.00
2023-04-24T03:30:58.751Z,16.90
2023-04-24T03:33:31.994Z,16.80
2023-04-24T03:36:02.383Z,16.70
2023-04-24T03:38:37.172Z,16.80
2023-04-24T03:41:19.997Z,16.70
2023-04-24T03:43:50.744Z,16.60
2023-04-24T03:46:17.918Z,16.80
2023-04-24T03:48:51.738Z,16.70
2023-04-24T03:51:21.655Z,16.80
2023-04-24T03:53:51.336Z,16.70
2023-04-24T03:56:21.602Z,16.70
2023-04-24T03:58:48.692Z,16.70
2023-04-24T04:01:17.163Z,16.70
2023-04-24T04:03:52.468Z,16.70
2023-04-24T04:06:23.058Z,16.70
2023-04-24T04:08:52.419Z,16.60
2023-04-24T04:11:19.380Z,16.60
2023-04-24T04:13:48.896Z,16.60
2023-04-24T04:16:18.727Z,16.60
2023-04-24T04:18:47.718Z,16.60
2023-04-24T04:21:14.957Z,16.60
2023-04-24T04:23:42.671Z,16.60
2023-04-24T04:26:22.174Z,16.60
2023-04-24T04:29:02.204Z,16.60
2023-04-24T04:31:31.230Z,16.60
2023-04-24T04:34:02.601Z,16.50
2023-04-24T04:36:32.281Z,16.60
2023-04-24T04:39:08.596Z,16.70
2023-04-24T04:41:55.579Z,16.60
2023-04-24T04:44:30.253Z,16.60
2023-04-24T04:46:58.505Z,16.40
2023-04-24T04:49:29.509Z,16.30
2023-04-24T04:51:57.536Z,16.30
2023-04-24T04:54:26.666Z,16.20
2023-04-24T04:56:54.415Z,16.00
2023-04-24T04:59:21.992Z,16.00
2023-04-24T05:01:52.401Z,16.00
2023-04-24T05:04:19.737Z,16.00
2023-04-24T05:06:48.432Z,16.00
2023-04-24T05:09:16.119Z,15.70
2023-04-24T05:11:53.341Z,14.80
2023-04-24T05:14:21.824Z,14.80
2023-04-24T05:16:50.253Z,14.80
2023-04-24T05:19:20.110Z,15.00
2023-04-24T05:21:47.322Z,15.10
2023-04-24T05:24:14.301Z,15.20
2023-04-24T05:27:00.219Z,15.40
2023-04-24T05:29:34.356Z,15.60
2023-04-24T05:32:01.780Z,15.70
2023-04-24T05:34:31.065Z,15.80
2023-04-24T05:36:58.672Z,15.80
2023-04-24T05:39:26.454Z,15.80
2023-04-24T05:41:54.669Z,15.70
2023-04-24T05:44:21.830Z,15.70
2023-04-24T05:46:49.174Z,15.70
2023-04-24T05:49:17.584Z,15.90
2023-04-24T05:51:46.073Z,16.00
2023-04-24T05:54:13.474Z,16.00
2023-04-24T05:56:43.190Z,16.00
2023-04-24T05:59:13.504Z,16.00
2023-04-24T06:01:41.728Z,16.10
2023-04-24T06:04:17.101Z,16.10
2023-04-24T06:06:44.275Z,16.20
2023-04-24T06:09:11.250Z,16.20
2023-04-24T06:11:38.243Z,16.20
2023-04-24T06:14:06.170Z,16.10
2023-04-24T06:16:40.024Z,16.10
2023-04-24T06:19:17.894Z,16.10
2023-04-24T06:21:44.963Z,16.10
2023-04-24T06:24:12.079Z,16.30
2023-04-24T06:26:39.041Z,16.30
2023-04-24T06:29:08.466Z,16.10
2023-04-24T06:31:38.123Z,16.10
2023-04-24T06:34:06.005Z,16.10
2023-04-24T06:36:35.551Z,16.10
2023-04-24T06:39:02.844Z,16.10
2023-04-24T06:41:30.597Z,16.00
2023-04-24T06:43:57.514Z,16.10
2023-04-24T06:46:27.168Z,16.20
2023-04-24T06:48:57.550Z,16.20
2023-04-24T06:51:25.358Z,16.20
2023-04-24T06:53:55.577Z,16.20
2023-04-24T06:56:23.305Z,16.20
2023-04-24T06:58:50.510Z,16.30
2023-04-24T07:01:17.504Z,16.20
2023-04-24T07:03:44.587Z,16.30
2023-04-24T07:06:15.473Z,16.40
2023-04-24T07:08:43.106Z,16.40
2023-04-24T07:11:10.065Z,16.50
2023-04-24T07:13:37.110Z,16.50
2023-04-24T07:16:04.266Z,16.50
2023-04-24T07:18:31.614Z,16.40
2023-04-24T07:20:58.804Z,16.30
2023-04-24T07:23:25.971Z,16.30
2023-04-24T07:25:52.934Z,16.40
2023-04-24T07:28:19.983Z,16.30
2023-04-24T07:30:46.884Z,16.20
2023-04-24T07:33:14.465Z,16.20
2023-04-24T07:35:41.490Z,16.10
2023-04-24T07:38:08.457Z,16.10
2023-04-24T07:40:35.448Z,16.20
2023-04-24T07:43:02.464Z,16.30
2023-04-24T07:45:29.551Z,16.20
2023-04-24T07:47:57.432Z,16.20
2023-04-24T07:50:24.512Z,16.10
2023-04-24T07:52:51.630Z,16.00
2023-04-24T07:55:19.889Z,16.10
2023-04-24T07:57:48.904Z,16.10
2023-04-24T08:00:16.269Z,16.20
2023-04-24T08:02:43.467Z,16.20
2023-04-24T08:05:11.179Z,16.20
2023-04-24T08:07:38.981Z,16.30
2023-04-24T08:10:06.655Z,16.40
2023-04-24T08:12:33.650Z,16.50
2023-04-24T08:15:00.852Z,16.40
2023-04-24T08:17:27.915Z,16.40
2023-04-24T08:20:02.186Z,16.50
2023-04-24T08:22:29.675Z,16.50
2023-04-24T08:24:58.033Z,16.60
2023-04-24T08:27:25.276Z,16.70
2023-04-24T08:29:53.938Z,16.60
2023-04-24T08:32:21.064Z,16.60
2023-04-24T08:34:49.659Z,16.50
2023-04-24T08:37:17.139Z,16.40
2023-04-24T08:39:44.269Z,16.30
2023-04-24T08:42:14.135Z,16.30
2023-04-24T08:44:41.388Z,16.30
2023-04-24T08:47:09.332Z,16.40
2023-04-24T08:49:38.702Z,16.50
2023-04-24T08:52:08.759Z,16.70
2023-04-24T08:54:37.023Z,16.80
2023-04-24T08:57:05.014Z,16.90
2023-04-24T08:59:32.855Z,16.90
2023-04-24T09:02:02.369Z,16.90
2023-04-24T09:04:31.270Z,16.90
2023-04-24T09:06:59.555Z,17.10
2023-04-24T09:09:27.207Z,17.10
2023-04-24T09:11:58.265Z,17.20
2023-04-24T09:14:25.551Z,17.30
2023-04-24T09:16:53.865Z,17.40
2023-04-24T09:19:22.785Z,17.40
2023-04-24T09:21:49.821Z,17.30
2023-04-24T09:24:21.262Z,17.30
2023-04-24T09:26:48.358Z,17.20
2023-04-24T09:29:17.906Z,17.20
2023-04-24T09:31:46.711Z,17.20
2023-04-24T09:34:14.640Z,17.30
2023-04-24T09:36:43.843Z,17.40
2023-04-24T09:39:13.404Z,17.50
2023-04-24T09:41:50.234Z,17.50
2023-04-24T09:44:19.035Z,17.40
2023-04-24T09:46:50.710Z,17.60
2023-04-24T09:49:23.247Z,17.70
2023-04-24T09:51:50.367Z,17.70
2023-04-24T09:54:22.164Z,17.80
2023-04-24T09:56:51.584Z,17.70
2023-04-24T09:59:20.758Z,17.70
2023-04-24T10:01:49.658Z,17.50
2023-04-24T10:04:22.378Z,17.40
2023-04-24T10:06:50.661Z,17.30
2023-04-24T10:09:23.005Z,17.20
2023-04-24T10:11:52.188Z,17.20
2023-04-24T10:14:24.389Z,17.10
2023-04-24T10:16:54.462Z,17.10
2023-04-24T10:19:21.506Z,17.30
2023-04-24T10:21:48.740Z,17.20
2023-04-24T10:24:18.883Z,17.30
2023-04-24T10:26:47.120Z,17.40
2023-04-24T10:29:18.828Z,17.40
2023-04-24T10:31:48.747Z,17.60
2023-04-24T10:34:18.647Z,17.50
2023-04-24T10:37:04.487Z,17.40
2023-04-24T10:39:34.480Z,17.30
2023-04-24T10:42:01.791Z,17.40
2023-04-24T10:44:37.990Z,17.40
2023-04-24T10:47:05.320Z,17.10
2023-04-24T10:49:33.124Z,17.20
2023-04-24T10:52:06.747Z,17.10
2023-04-24T10:54:41.526Z,17.10
2023-04-24T10:57:20.763Z,17.10
2023-04-24T10:59:49.456Z,17.10
2023-04-24T11:02:17.483Z,17.30
2023-04-24T11:04:46.129Z,17.40
2023-04-24T11:07:13.754Z,17.40
2023-04-24T11:09:44.247Z,17.30
2023-04-24T11:12:13.845Z,17.10
2023-04-24T11:14:59.574Z,17.20
2023-04-24T11:17:39.220Z,17.10
2023-04-24T11:20:27.805Z,17.10
2023-04-24T11:22:56.511Z,17.20
2023-04-24T11:25:23.961Z,17.20
2023-04-24T11:27:51.400Z,17.40
2023-04-24T11:30:20.462Z,17.50
2023-04-24T11:32:52.598Z,17.50
2023-04-24T11:35:22.378Z,17.40
2023-04-24T11:40:23.893Z,17.50
2023-04-24T11:42:52.187Z,17.50
2023-04-24T11:45:27.219Z,17.50
2023-04-24T11:47:54.857Z,17.40
2023-04-24T11:50:24.734Z,17.50
2023-04-24T11:52:52.252Z,17.60
2023-04-24T11:55:29.064Z,17.50
2023-04-24T11:57:58.663Z,17.40
2023-04-24T12:00:28.522Z,17.30
2023-04-24T12:03:10.257Z,17.10
2023-04-24T12:05:37.880Z,16.90
2023-04-24T12:08:05.978Z,16.80
2023-04-24T12:10:34.135Z,16.90
2023-04-24T12:13:01.582Z,17.00
2023-04-24T12:15:28.957Z,17.20
2023-04-24T12:17:57.432Z,17.30
2023-04-24T12:20:34.196Z,17.40
2023-04-24T12:23:02.305Z,17.50
2023-04-24T12:25:32.098Z,17.30
2023-04-24T12:28:05.099Z,17.20
2023-04-24T12:30:34.707Z,17.30
2023-04-24T12:33:01.916Z,17.40
2023-04-24T12:35:30.308Z,17.40
2023-04-24T12:38:05.982Z,17.50
2023-04-24T12:40:32.983Z,17.40
2023-04-24T12:43:00.001Z,17.50
2023-04-24T12:45:28.884Z,17.50
2023-04-24T12:47:56.067Z,17.60
2023-04-24T12:50:23.117Z,17.80
2023-04-24T12:52:50.052Z,17.90
2023-04-24T12:55:17.024Z,18.00
2023-04-24T12:57:44.014Z,18.00
2023-04-24T13:00:11.415Z,17.90
2023-04-24T13:02:38.625Z,17.80
2023-04-24T13:05:07.171Z,17.80
2023-04-24T13:07:34.485Z,17.80
2023-04-24T13:10:01.724Z,17.80
2023-04-24T13:12:28.750Z,17.90
2023-04-24T13:14:55.684Z,17.90
2023-04-24T13:17:23.153Z,17.90
2023-04-24T13:19:51.965Z,17.80
2023-04-24T13:22:19.876Z,17.90
2023-04-24T13:24:47.089Z,17.90
2023-04-24T13:27:14.127Z,17.90
2023-04-24T13:29:41.516Z,17.80
2023-04-24T13:32:09.561Z,17.80
2023-04-24T13:34:37.773Z,17.70
2023-04-24T13:37:05.920Z,17.60
2023-04-24T13:39:32.930Z,17.60
2023-04-24T13:42:00.462Z,17.80
2023-04-24T13:44:28.509Z,17.90
2023-04-24T13:46:57.967Z,17.90
2023-04-24T13:49:26.348Z,17.90
2023-04-24T13:51:54.379Z,17.90
2023-04-24T13:54:21.504Z,17.90
2023-04-24T13:56:48.502Z,17.90
2023-04-24T13:59:15.731Z,17.80
2023-04-24T14:01:42.687Z,17.80
2023-04-24T14:04:09.971Z,17.90
2023-04-24T14:06:37.027Z,17.80
2023-04-24T14:09:04.134Z,17.90
2023-04-24T14:11:31.278Z,18.00
2023-04-24T14:13:58.296Z,17.90
2023-04-24T14:16:25.881Z,17.90
2023-04-24T14:18:52.866Z,17.90
2023-04-24T14:21:19.795Z,17.90
2023-04-24T14:23:47.022Z,17.90
2023-04-24T14:26:14.363Z,18.00
2023-04-24T14:28:41.581Z,18.00
2023-04-24T14:31:09.231Z,17.90
2023-04-24T14:33:36.324Z,17.90
2023-04-24T14:36:04.011Z,17.90
2023-04-24T14:38:32.479Z,17.90
2023-04-24T14:41:07.106Z,17.80
2023-04-24T14:43:36.522Z,17.80
2023-04-24T14:46:05.755Z,17.90
2023-04-24T14:48:32.896Z,17.90
2023-04-24T14:51:00.107Z,17.90
2023-04-24T14:53:27.173Z,17.80
2023-04-24T14:55:54.846Z,17.90
2023-04-24T14:58:21.881Z,18.00
2023-04-24T15:00:51.229Z,18.00
2023-04-24T15:03:19.294Z,17.90
2023-04-24T15:05:46.816Z,17.90
2023-04-24T15:08:13.842Z,17.80
2023-04-24T15:10:41.032Z,17.90
2023-04-24T15:13:08.016Z,17.80
2023-04-24T15:15:35.051Z,17.80
2023-04-24T15:18:02.436Z,17.70
2023-04-24T15:20:29.479Z,17.70
2023-04-24T15:22:56.610Z,17.60
2023-04-24T15:25:23.719Z,17.70
2023-04-24T15:27:50.763Z,17.70
2023-04-24T15:30:17.874Z,17.80
2023-04-24T15:32:44.794Z,17.80
2023-04-24T15:35:11.772Z,17.80
2023-04-24T15:37:39.721Z,17.90
2023-04-24T15:40:08.642Z,17.90
2023-04-24T15:42:36.361Z,17.80
2023-04-24T15:45:04.495Z,17.90
2023-04-24T15:47:32.827Z,17.90
2023-04-24T15:49:59.817Z,17.80
2023-04-24T15:52:26.732Z,17.70
2023-04-24T15:54:54.042Z,17.70
2023-04-24T15:57:21.686Z,17.70
2023-04-24T15:59:48.991Z,17.70
2023-04-24T16:02:20.743Z,17.70
2023-04-24T16:04:49.793Z,17.70
2023-04-24T16:07:20.625Z,17.70
2023-04-24T16:09:47.833Z,17.60
2023-04-24T16:12:14.991Z,17.60
2023-04-24T16:14:42.003Z,17.60
2023-04-24T16:17:09.365Z,17.70
2023-04-24T16:19:36.503Z,17.70
2023-04-24T16:22:04.299Z,17.70
2023-04-24T16:24:31.442Z,17.80
2023-04-24T16:27:00.880Z,17.70
2023-04-24T16:29:28.867Z,17.70
2023-04-24T16:31:55.958Z,17.70
2023-04-24T16:34:22.928Z,17.70
2023-04-24T16:36:50.411Z,17.60
2023-04-24T16:39:17.373Z,17.60
2023-04-24T16:41:45.705Z,17.50
2023-04-24T16:44:13.775Z,17.60
2023-04-24T16:46:40.778Z,17.60
2023-04-24T16:49:07.939Z,17.70
2023-04-24T16:51:34.978Z,17.80
2023-04-24T16:54:01.924Z,18.00
2023-04-24T16:56:28.898Z,17.90
2023-04-24T16:58:56.608Z,17.80
2023-04-24T17:01:24.061Z,17.80
2023-04-24T17:03:51.604Z,17.70
2023-04-24T17:06:18.871Z,17.70
2023-04-24T17:08:46.384Z,17.60
2023-04-24T17:11:13.495Z,17.70
2023-04-24T17:13:40.629Z,17.60
2023-04-24T17:16:07.740Z,17.50
2023-04-24T17:18:34.794Z,17.50
2023-04-24T17:21:01.743Z,17.50
2023-04-24T17:23:28.897Z,17.50
2023-04-24T17:25:55.870Z,17.50
2023-04-24T17:28:28.948Z,17.60
2023-04-24T17:30:58.340Z,17.60
2023-04-24T17:33:30.414Z,17.50
2023-04-24T17:36:04.103Z,17.50
2023-04-24T17:38:31.255Z,17.50
2023-04-24T17:40:58.480Z,17.50
2023-04-24T17:43:26.294Z,17.40
2023-04-24T17:45:59.322Z,17.40
2023-04-24T17:48:29.619Z,17.50
2023-04-24T17:50:56.633Z,17.40
2023-04-24T17:53:23.785Z,17.40
2023-04-24T17:55:50.844Z,17.40
2023-04-24T17:58:19.119Z,17.40
2023-04-24T18:00:46.433Z,17.40
2023-04-24T18:03:13.635Z,17.40
2023-04-24T18:05:40.808Z,17.40
2023-04-24T18:08:07.872Z,17.30
2023-04-24T18:10:37.942Z,17.30
2023-04-24T18:13:05.693Z,17.30
2023-04-24T18:15:32.925Z,17.30
2023-04-24T18:18:00.449Z,17.30
2023-04-24T18:20:27.671Z,17.30
2023-04-24T18:22:54.787Z,17.30
2023-04-24T18:25:26.729Z,17.30
2023-04-24T18:27:55.872Z,17.20
2023-04-24T18:30:24.164Z,17.10
2023-04-24T18:32:53.435Z,16.90
2023-04-24T18:35:21.551Z,16.90
2023-04-24T18:37:49.142Z,16.80
2023-04-24T18:40:17.106Z,16.70
2023-04-24T18:42:44.960Z,16.70
2023-04-24T18:45:15.075Z,16.70
2023-04-24T18:47:43.071Z,16.70
2023-04-24T18:50:11.129Z,16.80
2023-04-24T18:52:38.159Z,16.70
2023-04-24T18:55:06.678Z,16.60
2023-04-24T18:57:33.954Z,16.50
2023-04-24T19:00:00.950Z,16.50
2023-04-24T19:02:28.135Z,16.60
2023-04-24T19:04:55.389Z,16.70
2023-04-24T19:07:22.412Z,16.70
2023-04-24T19:09:49.384Z,16.80
2023-04-24T19:12:16.516Z,16.70
2023-04-24T19:14:43.610Z,16.70
2023-04-24T19:17:11.133Z,16.70
2023-04-24T19:19:38.410Z,16.70
2023-04-24T19:22:07.641Z,16.80
2023-04-24T19:24:34.755Z,16.90
2023-04-24T19:27:02.258Z,16.90
2023-04-24T19:29:29.247Z,16.80
2023-04-24T19:31:57.928Z,16.80
2023-04-24T19:34:26.166Z,16.80
2023-04-24T19:36:53.244Z,16.90
2023-04-24T19:39:20.308Z,16.90
2023-04-24T19:41:47.513Z,16.90
2023-04-24T19:44:15.695Z,16.90
2023-04-24T19:46:43.301Z,16.90
2023-04-24T19:49:10.407Z,16.90
2023-04-24T19:51:37.849Z,16.90
2023-04-24T19:54:06.301Z,16.90
2023-04-24T19:56:33.698Z,16.90
2023-04-24T19:59:01.103Z,16.90
2023-04-24T20:01:28.674Z,16.90
2023-04-24T20:03:56.220Z,16.80
2023-04-24T20:06:23.398Z,16.80
2023-04-24T20:08:50.954Z,16.80
2023-04-24T20:11:18.145Z,16.80
2023-04-24T20:13:45.608Z,16.80
2023-04-24T20:16:12.878Z,16.80
2023-04-24T20:18:39.850Z,16.80
2023-04-24T20:21:06.898Z,16.80
2023-04-24T20:23:34.008Z,16.80
2023-04-24T20:26:01.358Z,16.80
2023-04-24T20:28:31.882Z,16.80
2023-04-24T20:30:59.857Z,16.80
2023-04-24T20:33:28.111Z,16.70
2023-04-24T20:35:55.662Z,16.70
2023-04-24T20:38:24.384Z,16.70
2023-04-24T20:43:23.022Z,16.80
2023-04-24T20:45:50.409Z,16.90
2023-04-24T20:48:17.551Z,16.80
2023-04-24T20:50:44.655Z,16.80
2023-04-24T20:53:11.578Z,16.80
2023-04-24T20:55:38.596Z,16.90
2023-04-24T20:58:05.604Z,16.80
2023-04-24T21:00:32.669Z,16.80
2023-04-24T21:02:59.954Z,16.90
2023-04-24T21:05:27.134Z,16.80
2023-04-24T21:07:56.088Z,16.90
2023-04-24T21:10:24.288Z,16.80
2023-04-24T21:12:51.361Z,16.80
2023-04-24T21:15:18.713Z,16.80
2023-04-24T21:17:46.000Z,16.80
2023-04-24T21:20:13.071Z,16.80
2023-04-24T21:22:40.223Z,16.80
2023-04-24T21:25:08.581Z,16.80
2023-04-24T21:27:36.300Z,16.80
2023-04-24T21:30:05.061Z,16.80
2023-04-24T21:32:32.131Z,16.80
2023-04-24T21:34:59.662Z,16.70
2023-04-24T21:37:27.295Z,16.80
2023-04-24T21:39:54.919Z,16.80
2023-04-24T21:42:22.005Z,16.80
2023-04-24T21:44:49.177Z,16.80
2023-04-24T21:47:16.135Z,16.80
2023-04-24T21:49:43.083Z,16.70
2023-04-24T21:52:10.141Z,16.60
2023-04-24T21:54:37.099Z,16.70
2023-04-24T21:57:04.193Z,16.70
2023-04-24T21:59:31.197Z,16.70
2023-04-24T22:01:58.543Z,16.70
2023-04-24T22:04:26.797Z,16.70
2023-04-24T22:06:56.725Z,16.60
2023-04-24T22:09:23.711Z,16.60
2023-04-24T22:11:51.038Z,16.60
2023-04-24T22:14:17.993Z,16.60
2023-04-24T22:16:46.079Z,16.60
2023-04-24T22:19:13.320Z,16.60
2023-04-24T22:21:41.114Z,16.60
2023-04-24T22:24:08.897Z,16.60
2023-04-24T22:26:35.890Z,16.70
2023-04-24T22:29:03.034Z,16.70
2023-04-24T22:31:30.121Z,16.70
2023-04-24T22:33:57.142Z,16.70
2023-04-24T22:36:24.131Z,16.70
2023-04-24T22:38:51.641Z,16.60
2023-04-24T22:41:18.838Z,16.60
2023-04-24T22:43:46.386Z,16.50
2023-04-24T22:46:13.620Z,16.50
2023-04-24T22:48:40.700Z,16.50
2023-04-24T22:51:07.678Z,16.60
2023-04-24T22:53:36.203Z,16.60
2023-04-24T22:56:03.416Z,16.60
2023-04-24T22:58:30.443Z,16.60
2023-04-24T23:00:57.426Z,16.50
2023-04-24T23:03:24.639Z,16.50
2023-04-24T23:05:51.691Z,16.50
2023-04-24T23:08:18.703Z,16.50
2023-04-24T23:10:45.756Z,16.50
2023-04-24T23:13:12.919Z,16.50
2023-04-24T23:15:39.947Z,16.50
2023-04-24T23:18:06.941Z,16.50
2023-04-24T23:20:33.921Z,16.50
2023-04-24T23:23:01.020Z,16.50
2023-04-24T23:25:27.907Z,16.50
2023-04-24T23:27:54.944Z,16.30
2023-04-24T23:30:21.987Z,16.30
2023-04-24T23:32:48.960Z,16.30
2023-04-24T23:35:15.912Z,16.30
2023-04-24T23:37:43.033Z,16.20
2023-04-24T23:40:10.596Z,16.30
2023-04-24T23:42:37.766Z,16.20
2023-04-24T23:45:05.728Z,16.20
2023-04-24T23:47:32.919Z,16.20
2023-04-24T23:49:59.924Z,16.20
2023-04-24T23:52:26.848Z,16.20
2023-04-24T23:54:53.791Z,16.20
2023-04-24T23:57:21.618Z,16.20
2023-04-24T23:59:48.626Z,16.10
